createdAt,value
2019-05-21T00:00:30.544Z,11.00
2019-05-21T00:02:58.245Z,11.00
2019-05-21T00:05:25.920Z,11.00
2019-05-21T00:07:53.551Z,10.90
2019-05-21T00:10:21.316Z,10.80
2019-05-21T00:12:49.045Z,10.80
2019-05-21T00:15:16.898Z,10.80
2019-05-21T00:17:44.547Z,10.80
2019-05-21T00:20:12.277Z,10.60
2019-05-21T00:22:40.306Z,10.40
2019-05-21T00:25:08.516Z,10.40
2019-05-21T00:27:36.168Z,10.40
2019-05-21T00:30:22.355Z,10.40
2019-05-21T00:33:08.422Z,10.30
2019-05-21T00:35:54.199Z,10.40
2019-05-21T00:38:40.528Z,10.50
2019-05-21T00:41:26.506Z,10.50
2019-05-21T00:43:55.966Z,10.40
2019-05-21T00:46:23.632Z,10.40
2019-05-21T00:48:51.564Z,10.30
2019-05-21T00:51:19.339Z,10.40
2019-05-21T00:53:47.056Z,10.40
2019-05-21T00:56:14.703Z,10.40
2019-05-21T00:58:42.562Z,10.50
2019-05-21T01:01:10.277Z,10.40
2019-05-21T01:03:38.000Z,10.40
2019-05-21T01:06:05.760Z,10.00
2019-05-21T01:08:33.404Z,9.90
2019-05-21T01:11:01.060Z,9.50
2019-05-21T01:13:28.915Z,9.60
2019-05-21T01:15:56.574Z,9.60
2019-05-21T01:18:24.578Z,9.50
2019-05-21T01:20:52.653Z,9.50
2019-05-21T01:23:20.299Z,9.50
2019-05-21T01:25:47.958Z,9.30
2019-05-21T01:28:15.635Z,9.10
2019-05-21T01:30:43.632Z,8.90
2019-05-21T01:33:11.317Z,8.90
2019-05-21T01:35:39.295Z,8.80
2019-05-21T01:38:06.979Z,8.80
2019-05-21T01:40:35.030Z,8.80
2019-05-21T01:43:03.503Z,8.80
2019-05-21T01:45:31.448Z,8.70
2019-05-21T01:47:59.147Z,8.80
2019-05-21T01:50:26.865Z,8.60
2019-05-21T01:52:54.511Z,8.50
2019-05-21T01:55:22.297Z,8.50
2019-05-21T01:57:49.945Z,8.60
2019-05-21T02:00:18.287Z,8.50
2019-05-21T02:02:45.984Z,8.50
2019-05-21T02:05:13.707Z,8.40
2019-05-21T02:07:41.354Z,8.40
2019-05-21T02:10:09.103Z,8.50
2019-05-21T02:12:36.756Z,8.70
2019-05-21T02:15:05.907Z,8.70
2019-05-21T02:17:33.792Z,8.70
2019-05-21T02:20:01.447Z,8.70
2019-05-21T02:22:29.471Z,8.60
2019-05-21T02:24:57.230Z,8.60
2019-05-21T02:27:25.197Z,8.50
2019-05-21T02:29:52.848Z,8.50
2019-05-21T02:32:20.538Z,8.40
2019-05-21T02:34:48.530Z,8.40
2019-05-21T02:37:16.175Z,8.30
2019-05-21T02:39:43.855Z,8.40
2019-05-21T02:42:11.575Z,8.40
2019-05-21T02:44:39.409Z,8.30
2019-05-21T02:47:07.059Z,8.30
2019-05-21T02:49:34.704Z,8.10
2019-05-21T02:52:02.386Z,7.90
2019-05-21T02:54:40.708Z,7.80
2019-05-21T02:56:59.876Z,7.80
2019-05-21T02:59:27.595Z,7.70
2019-05-21T03:01:56.958Z,7.80
2019-05-21T03:04:24.645Z,7.80
2019-05-21T03:06:53.931Z,7.70
2019-05-21T03:09:22.368Z,7.70
2019-05-21T03:11:50.392Z,7.70
2019-05-21T03:14:18.081Z,7.80
2019-05-21T03:16:46.024Z,7.70
2019-05-21T03:19:16.506Z,7.70
2019-05-21T03:21:43.173Z,7.60
2019-05-21T03:24:10.829Z,7.50
2019-05-21T03:26:38.524Z,7.60
2019-05-21T03:29:06.173Z,7.70
2019-05-21T03:31:33.929Z,7.80
2019-05-21T03:34:01.579Z,7.80
2019-05-21T03:36:33.302Z,7.80
2019-05-21T03:38:58.700Z,7.80
2019-05-21T03:41:26.369Z,7.70
2019-05-21T03:43:54.362Z,7.80
2019-05-21T03:46:22.167Z,7.80
2019-05-21T03:48:49.819Z,7.80
2019-05-21T03:51:18.233Z,8.00
2019-05-21T03:53:46.011Z,8.30
2019-05-21T03:56:13.722Z,8.30
2019-05-21T03:58:41.367Z,8.50
2019-05-21T04:01:09.156Z,8.70
2019-05-21T04:03:36.809Z,8.70
2019-05-21T04:06:04.782Z,8.90
2019-05-21T04:08:32.609Z,8.90
2019-05-21T04:11:00.272Z,9.30
2019-05-21T04:13:27.905Z,9.30
2019-05-21T04:16:15.031Z,9.30
2019-05-21T04:18:50.190Z,9.30
2019-05-21T04:21:18.220Z,9.30
2019-05-21T04:23:45.872Z,9.40
2019-05-21T04:26:13.569Z,9.60
2019-05-21T04:28:41.311Z,9.60
2019-05-21T04:31:09.114Z,9.70
2019-05-21T04:33:36.806Z,9.70
2019-05-21T04:36:04.845Z,9.80
2019-05-21T04:38:32.490Z,9.80
2019-05-21T04:41:00.155Z,10.00
2019-05-21T04:43:27.999Z,10.00
2019-05-21T04:45:55.800Z,10.00
2019-05-21T04:48:23.778Z,10.00
2019-05-21T04:50:51.483Z,10.00
2019-05-21T04:53:19.145Z,10.30
2019-05-21T04:55:47.200Z,10.30
2019-05-21T04:58:15.268Z,10.50
2019-05-21T05:00:42.987Z,10.60
2019-05-21T05:03:10.637Z,10.60
2019-05-21T05:05:38.523Z,10.70
2019-05-21T05:08:06.546Z,10.70
2019-05-21T05:10:34.212Z,10.80
2019-05-21T05:13:02.006Z,10.90
2019-05-21T05:15:29.652Z,10.70
2019-05-21T05:17:57.351Z,10.80
2019-05-21T05:20:25.516Z,11.00
2019-05-21T05:22:53.473Z,11.20
2019-05-21T05:25:21.195Z,11.20
2019-05-21T05:27:49.072Z,11.40
2019-05-21T05:30:16.993Z,11.50
2019-05-21T05:32:44.642Z,11.70
2019-05-21T05:35:12.408Z,11.70
2019-05-21T05:37:46.387Z,11.80
2019-05-21T05:40:09.799Z,11.90
2019-05-21T05:42:37.627Z,11.90
2019-05-21T05:45:06.059Z,12.10
2019-05-21T05:47:33.797Z,12.20
2019-05-21T05:50:03.284Z,12.20
2019-05-21T05:54:58.330Z,12.50
2019-05-21T05:57:26.025Z,12.80
2019-05-21T05:59:53.678Z,13.10
2019-05-21T06:02:21.323Z,13.10
2019-05-21T06:04:49.086Z,13.20
2019-05-21T06:07:17.010Z,13.10
2019-05-21T06:09:44.791Z,13.30
2019-05-21T06:12:12.456Z,13.40
2019-05-21T06:14:40.164Z,13.50
2019-05-21T06:17:07.881Z,13.60
2019-05-21T06:19:35.796Z,13.60
2019-05-21T06:22:03.544Z,13.60
2019-05-21T06:24:31.321Z,13.80
2019-05-21T06:26:58.962Z,13.70
2019-05-21T06:29:26.683Z,13.90
2019-05-21T06:31:54.386Z,14.20
2019-05-21T06:34:22.372Z,14.50
2019-05-21T06:36:50.030Z,14.50
2019-05-21T06:39:18.008Z,14.80
2019-05-21T06:41:45.695Z,14.80
2019-05-21T06:44:13.635Z,14.80
2019-05-21T06:46:41.297Z,15.00
2019-05-21T06:49:09.152Z,14.90
2019-05-21T06:51:36.813Z,14.80
2019-05-21T06:54:04.812Z,15.30
2019-05-21T06:56:32.479Z,15.30
2019-05-21T06:59:00.268Z,15.80
2019-05-21T07:01:29.494Z,16.10
2019-05-21T07:03:57.327Z,16.00
2019-05-21T07:06:25.365Z,16.20
2019-05-21T07:08:53.018Z,16.00
2019-05-21T07:11:20.750Z,16.10
2019-05-21T07:13:48.505Z,16.00
2019-05-21T07:16:16.203Z,15.90
2019-05-21T07:18:44.280Z,15.80
2019-05-21T07:21:11.995Z,15.80
2019-05-21T07:23:39.643Z,15.60
2019-05-21T07:26:07.414Z,15.90
2019-05-21T07:28:35.113Z,16.00
2019-05-21T07:31:03.167Z,16.00
2019-05-21T07:33:30.884Z,16.00
2019-05-21T07:35:58.582Z,16.00
2019-05-21T07:38:26.252Z,16.20
2019-05-21T07:40:54.094Z,16.30
2019-05-21T07:43:21.821Z,16.50
2019-05-21T07:45:49.547Z,16.50
2019-05-21T07:48:17.327Z,16.40
2019-05-21T07:50:45.054Z,16.60
2019-05-21T07:53:12.960Z,16.60
2019-05-21T07:55:40.732Z,16.60
2019-05-21T07:58:08.387Z,16.70
2019-05-21T08:00:36.031Z,16.60
2019-05-21T08:03:03.888Z,16.70
2019-05-21T08:05:31.537Z,16.70
2019-05-21T08:07:59.258Z,16.90
2019-05-21T08:10:26.964Z,17.00
2019-05-21T08:12:54.662Z,16.90
2019-05-21T08:15:22.315Z,17.00
2019-05-21T08:17:50.091Z,17.10
2019-05-21T08:20:18.490Z,17.20
2019-05-21T08:22:46.148Z,17.20
2019-05-21T08:25:15.061Z,16.90
2019-05-21T08:27:43.027Z,17.00
2019-05-21T08:30:11.220Z,16.90
2019-05-21T08:32:38.972Z,16.90
2019-05-21T08:35:07.062Z,17.20
2019-05-21T08:37:34.985Z,17.60
2019-05-21T08:40:03.126Z,17.60
2019-05-21T08:42:30.984Z,17.80
2019-05-21T08:44:58.638Z,17.80
2019-05-21T08:47:26.554Z,17.80
2019-05-21T08:49:54.663Z,17.60
2019-05-21T08:52:22.379Z,17.70
2019-05-21T08:54:50.790Z,17.70
2019-05-21T08:57:18.728Z,17.40
2019-05-21T08:59:46.560Z,18.10
2019-05-21T09:02:14.283Z,18.10
2019-05-21T09:04:46.248Z,18.20
2019-05-21T09:07:11.674Z,18.20
2019-05-21T09:09:50.109Z,18.30
2019-05-21T09:12:09.124Z,18.50
2019-05-21T09:14:36.821Z,18.60
2019-05-21T09:17:04.811Z,18.50
2019-05-21T09:19:36.216Z,18.20
2019-05-21T09:22:02.118Z,18.00
2019-05-21T09:24:29.762Z,17.90
2019-05-21T09:26:57.484Z,17.90
2019-05-21T09:29:25.256Z,17.70
2019-05-21T09:31:52.972Z,17.70
2019-05-21T09:34:20.629Z,17.70
2019-05-21T09:36:48.325Z,17.80
2019-05-21T09:39:15.987Z,17.90
2019-05-21T09:41:43.647Z,18.10
2019-05-21T09:44:11.413Z,18.10
2019-05-21T09:46:39.145Z,18.20
2019-05-21T09:49:06.828Z,18.40
2019-05-21T09:51:34.483Z,18.30
2019-05-21T09:54:02.324Z,18.20
2019-05-21T09:56:33.065Z,18.30
2019-05-21T09:59:19.330Z,18.40
2019-05-21T10:01:48.910Z,18.50
2019-05-21T10:04:16.695Z,18.30
2019-05-21T10:06:44.675Z,18.50
2019-05-21T10:09:14.073Z,18.50
2019-05-21T10:11:42.000Z,18.50
2019-05-21T10:14:09.653Z,18.50
2019-05-21T10:16:37.371Z,18.70
2019-05-21T10:19:05.250Z,18.30
2019-05-21T10:21:32.961Z,18.00
2019-05-21T10:24:00.687Z,17.70
2019-05-21T10:26:28.452Z,17.60
2019-05-21T10:28:56.207Z,18.00
2019-05-21T10:31:24.190Z,18.70
2019-05-21T10:33:51.835Z,18.70
2019-05-21T10:36:19.594Z,18.50
2019-05-21T10:38:47.351Z,18.90
2019-05-21T10:41:15.366Z,18.80
2019-05-21T10:43:43.344Z,19.00
2019-05-21T10:46:11.113Z,19.10
2019-05-21T10:48:38.799Z,19.40
2019-05-21T10:51:06.522Z,19.40
2019-05-21T10:53:34.219Z,19.10
2019-05-21T10:56:02.336Z,19.00
2019-05-21T10:58:30.056Z,18.70
2019-05-21T11:01:02.058Z,18.80
2019-05-21T11:03:40.030Z,18.80
2019-05-21T11:06:10.517Z,19.60
2019-05-21T11:08:37.270Z,20.00
2019-05-21T11:11:05.215Z,20.00
2019-05-21T11:13:33.311Z,20.00
2019-05-21T11:16:00.953Z,19.80
2019-05-21T11:18:28.805Z,20.00
2019-05-21T11:20:56.787Z,20.30
2019-05-21T11:23:24.709Z,20.00
2019-05-21T11:25:52.784Z,19.90
2019-05-21T11:28:20.523Z,19.60
2019-05-21T11:30:48.450Z,20.10
2019-05-21T11:33:16.371Z,20.40
2019-05-21T11:35:44.351Z,20.40
2019-05-21T11:38:12.070Z,20.30
2019-05-21T11:40:40.186Z,20.90
2019-05-21T11:43:07.917Z,21.30
2019-05-21T11:45:35.648Z,21.50
2019-05-21T11:48:03.517Z,21.00
2019-05-21T11:50:31.166Z,21.10
2019-05-21T11:52:58.884Z,20.70
2019-05-21T11:55:26.609Z,21.10
2019-05-21T11:57:54.350Z,21.10
2019-05-21T12:00:23.617Z,21.00
2019-05-21T12:02:51.443Z,21.10
2019-05-21T12:05:19.192Z,21.50
2019-05-21T12:07:47.019Z,21.20
2019-05-21T12:10:15.106Z,20.70
2019-05-21T12:12:42.836Z,20.70
2019-05-21T12:15:10.896Z,20.60
2019-05-21T12:17:38.832Z,19.70
2019-05-21T12:20:07.231Z,19.60
2019-05-21T12:22:34.996Z,19.60
2019-05-21T12:25:02.725Z,19.60
2019-05-21T12:27:30.390Z,19.60
2019-05-21T12:29:58.073Z,19.80
2019-05-21T12:32:25.986Z,19.60
2019-05-21T12:34:53.755Z,19.60
2019-05-21T12:37:21.488Z,19.60
2019-05-21T12:39:49.206Z,19.70
2019-05-21T12:42:18.038Z,19.50
2019-05-21T12:44:45.795Z,19.60
2019-05-21T12:47:33.049Z,19.50
2019-05-21T12:50:00.852Z,19.20
2019-05-21T12:52:28.843Z,19.30
2019-05-21T12:54:56.703Z,19.10
2019-05-21T12:57:24.379Z,19.10
2019-05-21T12:59:52.076Z,19.00
2019-05-21T13:02:19.971Z,18.90
2019-05-21T13:04:47.676Z,18.80
2019-05-21T13:07:15.599Z,18.80
2019-05-21T13:09:43.661Z,19.00
2019-05-21T13:12:11.440Z,19.10
2019-05-21T13:14:39.351Z,19.30
2019-05-21T13:17:07.336Z,19.10
2019-05-21T13:19:35.020Z,19.20
2019-05-21T13:22:02.750Z,19.20
2019-05-21T13:24:30.676Z,19.20
2019-05-21T13:26:58.409Z,19.40
2019-05-21T13:29:26.164Z,19.40
2019-05-21T13:31:54.718Z,19.40
2019-05-21T13:34:22.479Z,19.40
2019-05-21T13:36:50.383Z,19.50
2019-05-21T13:39:18.099Z,19.30
2019-05-21T13:41:46.136Z,19.40
2019-05-21T13:44:13.794Z,19.40
2019-05-21T13:46:41.529Z,19.20
2019-05-21T13:49:09.309Z,19.20
2019-05-21T13:51:37.090Z,19.20
2019-05-21T13:54:05.171Z,19.20
2019-05-21T13:56:32.817Z,19.40
2019-05-21T13:59:00.503Z,19.50
2019-05-21T14:01:39.975Z,19.40
2019-05-21T14:03:57.816Z,19.40
2019-05-21T14:06:25.552Z,19.30
2019-05-21T14:08:53.205Z,19.40
2019-05-21T14:11:21.144Z,19.30
2019-05-21T14:13:48.799Z,19.20
2019-05-21T14:16:16.456Z,19.20
2019-05-21T14:18:44.571Z,19.30
2019-05-21T14:21:12.215Z,19.20
2019-05-21T14:23:39.933Z,19.70
2019-05-21T14:26:07.845Z,19.60
2019-05-21T14:28:35.606Z,19.70
2019-05-21T14:31:03.305Z,19.70
2019-05-21T14:33:31.166Z,20.10
2019-05-21T14:35:58.925Z,20.30
2019-05-21T14:38:26.647Z,20.30
2019-05-21T14:40:54.396Z,22.70
2019-05-21T14:43:22.034Z,22.40
2019-05-21T14:45:49.747Z,23.40
2019-05-21T14:48:17.471Z,23.60
2019-05-21T14:50:45.190Z,24.00
2019-05-21T14:53:13.109Z,24.00
2019-05-21T14:55:40.825Z,23.30
2019-05-21T14:58:08.542Z,22.50
2019-05-21T15:00:37.362Z,21.50
2019-05-21T15:03:05.230Z,21.70
2019-05-21T15:05:33.650Z,21.70
2019-05-21T15:08:01.528Z,21.70
2019-05-21T15:10:29.187Z,22.90
2019-05-21T15:12:56.821Z,23.00
2019-05-21T15:15:24.678Z,23.00
2019-05-21T15:17:52.333Z,25.20
2019-05-21T15:20:27.527Z,25.20
2019-05-21T15:22:55.375Z,25.80
2019-05-21T15:25:23.030Z,26.10
2019-05-21T15:27:50.686Z,25.60
2019-05-21T15:30:18.450Z,25.40
2019-05-21T15:32:46.115Z,24.80
2019-05-21T15:35:13.769Z,24.80
2019-05-21T15:37:44.860Z,25.40
2019-05-21T15:40:11.364Z,25.40
2019-05-21T15:42:39.020Z,25.40
2019-05-21T15:45:06.884Z,25.70
2019-05-21T15:47:34.852Z,25.60
2019-05-21T15:50:02.513Z,25.10
2019-05-21T15:52:30.421Z,27.10
2019-05-21T15:54:58.204Z,27.40
2019-05-21T15:57:25.927Z,27.40
2019-05-21T15:59:53.583Z,27.50
2019-05-21T16:02:21.632Z,27.20
2019-05-21T16:04:49.288Z,27.10
2019-05-21T16:07:17.011Z,25.90
2019-05-21T16:09:44.754Z,25.90
2019-05-21T16:12:12.400Z,26.40
2019-05-21T16:14:40.133Z,26.50
2019-05-21T16:17:07.980Z,24.50
2019-05-21T16:19:35.658Z,23.20
2019-05-21T16:22:03.384Z,22.20
2019-05-21T16:24:31.622Z,22.10
2019-05-21T16:26:59.280Z,21.60
2019-05-21T16:29:26.933Z,21.50
2019-05-21T16:31:54.706Z,21.50
2019-05-21T16:34:22.425Z,20.90
2019-05-21T16:36:50.089Z,20.30
2019-05-21T16:39:19.575Z,20.20
2019-05-21T16:41:47.285Z,20.20
2019-05-21T16:44:14.938Z,20.00
2019-05-21T16:46:43.011Z,20.00
2019-05-21T16:49:10.915Z,20.00
2019-05-21T16:51:38.565Z,20.00
2019-05-21T16:54:06.421Z,19.90
2019-05-21T16:56:34.073Z,19.80
2019-05-21T16:59:01.791Z,19.50
2019-05-21T17:01:29.744Z,19.40
2019-05-21T17:04:00.017Z,19.40
2019-05-21T17:06:26.821Z,19.30
2019-05-21T17:08:54.582Z,19.40
2019-05-21T17:11:22.236Z,19.30
2019-05-21T17:13:50.015Z,19.20
2019-05-21T17:16:17.746Z,18.70
2019-05-21T17:18:45.503Z,18.60
2019-05-21T17:21:13.339Z,18.40
2019-05-21T17:23:40.985Z,18.20
2019-05-21T17:26:08.659Z,18.30
2019-05-21T17:28:36.454Z,18.30
2019-05-21T17:31:04.282Z,18.20
2019-05-21T17:33:32.246Z,18.40
2019-05-21T17:36:00.114Z,18.90
2019-05-21T17:38:27.775Z,18.90
2019-05-21T17:40:55.499Z,19.10
2019-05-21T17:43:23.292Z,19.40
2019-05-21T17:45:51.265Z,19.50
2019-05-21T17:48:18.933Z,19.30
2019-05-21T17:50:46.777Z,18.90
2019-05-21T17:53:14.434Z,18.60
2019-05-21T17:55:42.356Z,18.30
2019-05-21T17:58:10.067Z,18.10
2019-05-21T18:00:45.666Z,17.90
2019-05-21T18:03:14.843Z,17.70
2019-05-21T18:05:42.504Z,17.70
2019-05-21T18:08:10.327Z,17.60
2019-05-21T18:10:38.154Z,17.40
2019-05-21T18:13:06.007Z,17.40
2019-05-21T18:15:34.066Z,17.20
2019-05-21T18:18:02.610Z,17.10
2019-05-21T18:20:31.293Z,17.10
2019-05-21T18:22:59.719Z,16.90
2019-05-21T18:25:27.375Z,16.90
2019-05-21T18:27:55.089Z,16.60
2019-05-21T18:30:23.292Z,16.40
2019-05-21T18:32:51.615Z,16.30
2019-05-21T18:35:19.474Z,16.30
2019-05-21T18:37:47.407Z,16.30
2019-05-21T18:40:15.487Z,16.20
2019-05-21T18:42:43.235Z,16.10
2019-05-21T18:45:11.380Z,16.10
2019-05-21T18:47:39.113Z,16.00
2019-05-21T18:50:07.784Z,15.90
2019-05-21T18:52:35.521Z,15.70
2019-05-21T18:55:04.298Z,15.50
2019-05-21T18:57:32.337Z,15.50
2019-05-21T18:59:59.989Z,15.40
2019-05-21T19:02:27.735Z,15.30
2019-05-21T19:04:55.881Z,15.20
2019-05-21T19:07:23.700Z,15.10
2019-05-21T19:09:51.344Z,15.00
2019-05-21T19:12:19.152Z,14.80
2019-05-21T19:14:46.965Z,14.80
2019-05-21T19:17:14.729Z,14.70
2019-05-21T19:19:42.481Z,14.60
2019-05-21T19:22:10.508Z,14.60
2019-05-21T19:24:38.253Z,14.60
2019-05-21T19:27:05.938Z,14.70
2019-05-21T19:29:33.593Z,14.70
2019-05-21T19:32:01.274Z,14.90
2019-05-21T19:34:29.006Z,14.90
2019-05-21T19:36:56.857Z,14.90
2019-05-21T19:39:24.525Z,14.90
2019-05-21T19:41:52.319Z,14.80
2019-05-21T19:44:20.416Z,14.80
2019-05-21T19:46:48.143Z,14.70
2019-05-21T19:49:15.864Z,14.80
2019-05-21T19:51:43.583Z,14.60
2019-05-21T19:54:11.261Z,14.50
2019-05-21T19:56:38.966Z,14.50
2019-05-21T19:59:07.047Z,14.50
2019-05-21T20:01:34.945Z,14.60
2019-05-21T20:04:04.255Z,14.60
2019-05-21T20:06:32.453Z,14.70
2019-05-21T20:09:00.673Z,14.70
2019-05-21T20:11:29.013Z,14.70
2019-05-21T20:13:56.892Z,14.70
2019-05-21T20:16:25.521Z,14.70
2019-05-21T20:18:53.183Z,14.60
2019-05-21T20:21:21.152Z,14.50
2019-05-21T20:23:48.871Z,14.60
2019-05-21T20:26:18.336Z,14.50
2019-05-21T20:28:46.280Z,14.60
2019-05-21T20:31:14.135Z,14.50
2019-05-21T20:33:42.506Z,14.40
2019-05-21T20:36:11.103Z,14.40
2019-05-21T20:38:39.999Z,14.40
2019-05-21T20:41:08.400Z,14.30
2019-05-21T20:43:36.551Z,14.30
2019-05-21T20:46:05.242Z,14.20
2019-05-21T20:48:34.533Z,14.30
2019-05-21T20:51:04.442Z,14.30
2019-05-21T20:53:32.931Z,14.40
2019-05-21T20:56:00.757Z,14.40
2019-05-21T20:58:29.032Z,14.30
2019-05-21T21:00:58.537Z,14.30
2019-05-21T21:03:26.262Z,14.40
2019-05-21T21:05:54.480Z,14.40
2019-05-21T21:08:23.096Z,14.40
2019-05-21T21:10:51.185Z,14.60
2019-05-21T21:13:19.323Z,14.50
2019-05-21T21:15:47.763Z,14.60
2019-05-21T21:20:42.823Z,14.60
2019-05-21T21:23:10.689Z,14.50
2019-05-21T21:25:38.572Z,14.50
2019-05-21T21:28:06.769Z,14.40
2019-05-21T21:30:36.283Z,14.40
2019-05-21T21:33:05.412Z,14.40
2019-05-21T21:35:34.095Z,14.50
2019-05-21T21:38:01.819Z,14.40
2019-05-21T21:40:29.740Z,14.50
2019-05-21T21:42:57.452Z,14.40
2019-05-21T21:45:25.163Z,14.20
2019-05-21T21:47:53.365Z,14.10
2019-05-21T21:50:21.506Z,14.10
2019-05-21T21:52:50.002Z,14.20
2019-05-21T21:55:17.797Z,14.10
2019-05-21T21:57:45.768Z,14.20
2019-05-21T22:00:15.213Z,14.10
2019-05-21T22:02:43.528Z,14.20
2019-05-21T22:05:11.924Z,14.30
2019-05-21T22:07:39.700Z,14.30
2019-05-21T22:10:08.312Z,14.30
2019-05-21T22:12:36.697Z,14.30
2019-05-21T22:15:06.183Z,14.30
2019-05-21T22:17:34.199Z,14.40
2019-05-21T22:20:02.246Z,14.40
2019-05-21T22:22:30.722Z,14.30
2019-05-21T22:24:58.406Z,14.30
2019-05-21T22:27:26.231Z,14.30
2019-05-21T22:29:54.232Z,14.40
2019-05-21T22:32:22.648Z,14.30
2019-05-21T22:34:50.369Z,14.30
2019-05-21T22:37:19.775Z,14.30
2019-05-21T22:39:47.972Z,14.30
2019-05-21T22:42:17.271Z,14.30
2019-05-21T22:44:45.847Z,14.30
2019-05-21T22:47:15.139Z,14.30
2019-05-21T22:49:42.785Z,14.30
2019-05-21T22:52:10.728Z,14.30
2019-05-21T22:54:38.375Z,14.20
2019-05-21T22:57:06.086Z,14.20
2019-05-21T22:59:33.822Z,14.30
2019-05-21T23:02:02.749Z,14.20
2019-05-21T23:04:30.701Z,14.20
2019-05-21T23:06:58.554Z,14.20
2019-05-21T23:09:26.579Z,14.20
2019-05-21T23:11:54.289Z,14.10
2019-05-21T23:14:22.117Z,14.10
2019-05-21T23:16:50.407Z,14.00
2019-05-21T23:19:18.794Z,14.00
2019-05-21T23:21:46.667Z,13.90
2019-05-21T23:24:16.731Z,13.90
2019-05-21T23:26:44.971Z,13.90
2019-05-21T23:29:13.230Z,13.90
2019-05-21T23:31:40.952Z,14.00
2019-05-21T23:34:09.000Z,13.90
2019-05-21T23:36:36.759Z,14.00
2019-05-21T23:39:07.051Z,14.10
2019-05-21T23:41:34.709Z,14.10
2019-05-21T23:44:03.223Z,14.00
2019-05-21T23:46:31.155Z,14.10
2019-05-21T23:48:59.469Z,14.10
2019-05-21T23:51:27.119Z,14.10
2019-05-21T23:53:55.038Z,14.10
2019-05-21T23:56:22.764Z,14.10
2019-05-21T23:58:50.955Z,14.10
